sensor_id;sensor_type;location;lat;lon;timestamp;P1;durP1;ratioP1;P2;durP2;ratioP2
47856;SDS011;33618;49.972;8.242;2022-12-20T05:03:08;52.03;;;24.10;;
47856;SDS011;33618;49.972;8.242;2022-12-20T05:05:35;53.30;;;24.02;;
47856;SDS011;33618;49.972;8.242;2022-12-20T05:08:02;51.55;;;23.70;;
47856;SDS011;33618;49.972;8.242;2022-12-20T05:10:29;52.83;;;24.15;;
47856;SDS011;33618;49.972;8.242;2022-12-20T05:12:56;56.13;;;25.70;;
47856;SDS011;33618;49.972;8.242;2022-12-20T05:15:28;54.33;;;23.98;;
47856;SDS011;33618;49.972;8.242;2022-12-20T05:17:55;56.35;;;26.00;;
47856;SDS011;33618;49.972;8.242;2022-12-20T05:20:25;55.53;;;24.33;;
47856;SDS011;33618;49.972;8.242;2022-12-20T05:22:53;55.33;;;23.77;;
47856;SDS011;33618;49.972;8.242;2022-12-20T05:25:45;51.03;;;24.02;;
47856;SDS011;33618;49.972;8.242;2022-12-20T05:28:32;54.70;;;24.42;;
47856;SDS011;33618;49.972;8.242;2022-12-20T05:30:59;50.78;;;24.38;;
47856;SDS011;33618;49.972;8.242;2022-12-20T05:33:27;49.70;;;23.77;;
47856;SDS011;33618;49.972;8.242;2022-12-20T05:35:59;55.80;;;24.23;;
47856;SDS011;33618;49.972;8.242;2022-12-20T05:38:26;51.50;;;24.33;;
47856;SDS011;33618;49.972;8.242;2022-12-20T05:40:53;51.25;;;23.63;;
47856;SDS011;33618;49.972;8.242;2022-12-20T05:43:20;53.45;;;23.83;;
47856;SDS011;33618;49.972;8.242;2022-12-20T05:45:51;57.10;;;24.80;;
47856;SDS011;33618;49.972;8.242;2022-12-20T05:48:18;49.63;;;24.73;;
47856;SDS011;33618;49.972;8.242;2022-12-20T05:50:49;50.50;;;23.83;;
47856;SDS011;33618;49.972;8.242;2022-12-20T05:53:16;47.97;;;22.65;;
47856;SDS011;33618;49.972;8.242;2022-12-20T05:55:44;51.08;;;23.20;;
47856;SDS011;33618;49.972;8.242;2022-12-20T05:58:13;48.95;;;22.52;;
47856;SDS011;33618;49.972;8.242;2022-12-20T06:00:45;51.20;;;24.20;;
47856;SDS011;33618;49.972;8.242;2022-12-20T06:03:12;46.53;;;22.17;;
47856;SDS011;33618;49.972;8.242;2022-12-20T06:05:44;50.60;;;23.52;;
47856;SDS011;33618;49.972;8.242;2022-12-20T06:08:11;49.65;;;23.35;;
47856;SDS011;33618;49.972;8.242;2022-12-20T06:10:39;48.33;;;22.83;;
47856;SDS011;33618;49.972;8.242;2022-12-20T06:13:07;54.38;;;24.80;;
47856;SDS011;33618;49.972;8.242;2022-12-20T06:15:35;47.22;;;23.80;;
47856;SDS011;33618;49.972;8.242;2022-12-20T06:18:04;50.45;;;22.95;;
47856;SDS011;33618;49.972;8.242;2022-12-20T06:20:32;49.15;;;23.52;;
47856;SDS011;33618;49.972;8.242;2022-12-20T06:23:00;48.10;;;23.65;;
47856;SDS011;33618;49.972;8.242;2022-12-20T06:25:28;48.25;;;23.60;;
47856;SDS011;33618;49.972;8.242;2022-12-20T06:27:55;48.83;;;23.73;;
47856;SDS011;33618;49.972;8.242;2022-12-20T06:30:23;49.85;;;23.48;;
47856;SDS011;33618;49.972;8.242;2022-12-20T06:32:58;52.15;;;24.58;;
47856;SDS011;33618;49.972;8.242;2022-12-20T06:35:26;48.95;;;23.25;;
47856;SDS011;33618;49.972;8.242;2022-12-20T06:37:53;51.25;;;24.98;;
47856;SDS011;33618;49.972;8.242;2022-12-20T06:40:20;49.17;;;23.50;;
47856;SDS011;33618;49.972;8.242;2022-12-20T06:42:47;48.90;;;23.15;;
47856;SDS011;33618;49.972;8.242;2022-12-20T06:45:16;52.13;;;24.17;;
47856;SDS011;33618;49.972;8.242;2022-12-20T06:47:44;55.15;;;24.63;;
47856;SDS011;33618;49.972;8.242;2022-12-20T06:50:11;51.38;;;24.25;;
47856;SDS011;33618;49.972;8.242;2022-12-20T06:52:38;49.40;;;24.10;;
47856;SDS011;33618;49.972;8.242;2022-12-20T06:55:05;52.72;;;23.88;;
47856;SDS011;33618;49.972;8.242;2022-12-20T06:57:32;47.33;;;23.40;;
47856;SDS011;33618;49.972;8.242;2022-12-20T06:59:59;55.20;;;25.45;;
47856;SDS011;33618;49.972;8.242;2022-12-20T07:02:26;53.22;;;24.60;;
47856;SDS011;33618;49.972;8.242;2022-12-20T07:04:54;55.47;;;25.25;;
47856;SDS011;33618;49.972;8.242;2022-12-20T07:07:21;48.22;;;23.92;;
47856;SDS011;33618;49.972;8.242;2022-12-20T07:09:48;53.00;;;23.73;;
47856;SDS011;33618;49.972;8.242;2022-12-20T07:12:15;55.03;;;24.27;;
47856;SDS011;33618;49.972;8.242;2022-12-20T07:14:42;51.65;;;24.35;;
47856;SDS011;33618;49.972;8.242;2022-12-20T07:17:11;49.20;;;23.52;;
47856;SDS011;33618;49.972;8.242;2022-12-20T07:19:41;49.88;;;23.88;;
47856;SDS011;33618;49.972;8.242;2022-12-20T07:22:16;54.92;;;24.58;;
47856;SDS011;33618;49.972;8.242;2022-12-20T07:24:46;47.50;;;22.52;;
47856;SDS011;33618;49.972;8.242;2022-12-20T07:27:13;53.35;;;24.10;;
47856;SDS011;33618;49.972;8.242;2022-12-20T07:29:40;47.00;;;22.63;;
47856;SDS011;33618;49.972;8.242;2022-12-20T07:32:07;51.20;;;23.40;;
47856;SDS011;33618;49.972;8.242;2022-12-20T07:34:38;45.17;;;22.40;;
47856;SDS011;33618;49.972;8.242;2022-12-20T07:37:06;46.90;;;23.45;;
47856;SDS011;33618;49.972;8.242;2022-12-20T07:39:34;49.10;;;23.90;;
47856;SDS011;33618;49.972;8.242;2022-12-20T07:42:02;45.15;;;23.30;;
47856;SDS011;33618;49.972;8.242;2022-12-20T07:44:29;48.20;;;22.92;;
47856;SDS011;33618;49.972;8.242;2022-12-20T07:46:56;45.65;;;22.95;;
47856;SDS011;33618;49.972;8.242;2022-12-20T07:49:23;52.10;;;24.35;;
47856;SDS011;33618;49.972;8.242;2022-12-20T07:51:51;55.40;;;23.98;;
47856;SDS011;33618;49.972;8.242;2022-12-20T07:54:25;49.60;;;23.50;;
47856;SDS011;33618;49.972;8.242;2022-12-20T07:56:59;46.72;;;22.73;;
47856;SDS011;33618;49.972;8.242;2022-12-20T07:59:33;51.03;;;22.98;;
47856;SDS011;33618;49.972;8.242;2022-12-20T08:02:05;52.63;;;23.13;;
47856;SDS011;33618;49.972;8.242;2022-12-20T08:04:35;48.10;;;23.80;;
47856;SDS011;33618;49.972;8.242;2022-12-20T08:07:02;53.97;;;24.10;;
47856;SDS011;33618;49.972;8.242;2022-12-20T08:09:29;46.42;;;22.75;;
47856;SDS011;33618;49.972;8.242;2022-12-20T08:12:00;60.28;;;25.42;;
47856;SDS011;33618;49.972;8.242;2022-12-20T08:14:28;48.97;;;23.15;;
47856;SDS011;33618;49.972;8.242;2022-12-20T08:16:55;50.60;;;22.42;;
47856;SDS011;33618;49.972;8.242;2022-12-20T08:19:22;54.30;;;23.42;;
47856;SDS011;33618;49.972;8.242;2022-12-20T08:21:57;51.42;;;21.95;;
47856;SDS011;33618;49.972;8.242;2022-12-20T08:24:24;58.97;;;24.85;;
47856;SDS011;33618;49.972;8.242;2022-12-20T08:26:51;57.97;;;22.50;;
47856;SDS011;33618;49.972;8.242;2022-12-20T08:29:18;68.20;;;24.02;;
47856;SDS011;33618;49.972;8.242;2022-12-20T08:31:44;62.35;;;23.55;;
47856;SDS011;33618;49.972;8.242;2022-12-20T08:34:18;52.42;;;22.60;;
47856;SDS011;33618;49.972;8.242;2022-12-20T08:36:45;58.25;;;24.83;;
47856;SDS011;33618;49.972;8.242;2022-12-20T08:39:12;60.40;;;23.40;;
47856;SDS011;33618;49.972;8.242;2022-12-20T08:41:39;55.10;;;22.05;;
47856;SDS011;33618;49.972;8.242;2022-12-20T08:44:06;47.20;;;22.50;;
47856;SDS011;33618;49.972;8.242;2022-12-20T08:46:33;49.03;;;22.55;;
47856;SDS011;33618;49.972;8.242;2022-12-20T08:49:05;50.03;;;22.95;;
47856;SDS011;33618;49.972;8.242;2022-12-20T08:51:32;52.08;;;23.15;;
47856;SDS011;33618;49.972;8.242;2022-12-20T08:53:59;53.42;;;23.65;;
47856;SDS011;33618;49.972;8.242;2022-12-20T08:56:27;50.67;;;24.15;;
47856;SDS011;33618;49.972;8.242;2022-12-20T08:58:54;56.45;;;24.10;;
47856;SDS011;33618;49.972;8.242;2022-12-20T09:01:24;55.67;;;25.02;;
47856;SDS011;33618;49.972;8.242;2022-12-20T09:03:53;51.85;;;24.58;;
47856;SDS011;33618;49.972;8.242;2022-12-20T09:06:21;49.42;;;22.92;;
47856;SDS011;33618;49.972;8.242;2022-12-20T09:08:48;49.47;;;24.20;;
47856;SDS011;33618;49.972;8.242;2022-12-20T09:11:21;51.75;;;22.88;;
47856;SDS011;33618;49.972;8.242;2022-12-20T09:13:51;52.08;;;23.77;;
47856;SDS011;33618;49.972;8.242;2022-12-20T09:16:20;51.47;;;23.00;;
47856;SDS011;33618;49.972;8.242;2022-12-20T09:18:52;50.05;;;23.70;;
47856;SDS011;33618;49.972;8.242;2022-12-20T09:21:32;50.13;;;23.23;;
47856;SDS011;33618;49.972;8.242;2022-12-20T09:23:59;54.25;;;23.58;;
47856;SDS011;33618;49.972;8.242;2022-12-20T09:26:26;54.30;;;23.80;;
47856;SDS011;33618;49.972;8.242;2022-12-20T09:28:53;48.05;;;24.08;;
47856;SDS011;33618;49.972;8.242;2022-12-20T09:31:21;50.92;;;24.20;;
47856;SDS011;33618;49.972;8.242;2022-12-20T09:33:52;48.25;;;23.55;;
47856;SDS011;33618;49.972;8.242;2022-12-20T09:36:20;47.75;;;22.15;;
47856;SDS011;33618;49.972;8.242;2022-12-20T09:38:48;48.45;;;22.67;;
47856;SDS011;33618;49.972;8.242;2022-12-20T09:41:24;52.80;;;22.90;;
47856;SDS011;33618;49.972;8.242;2022-12-20T09:43:56;44.38;;;21.27;;
47856;SDS011;33618;49.972;8.242;2022-12-20T09:46:23;49.17;;;22.45;;
47856;SDS011;33618;49.972;8.242;2022-12-20T09:48:51;49.25;;;23.20;;
47856;SDS011;33618;49.972;8.242;2022-12-20T09:56:55;48.05;;;21.63;;
47856;SDS011;33618;49.972;8.242;2022-12-20T10:21:32;49.83;;;22.73;;
47856;SDS011;33618;49.972;8.242;2022-12-20T10:26:48;44.13;;;21.73;;
47856;SDS011;33618;49.972;8.242;2022-12-20T10:29:17;42.70;;;22.38;;
47856;SDS011;33618;49.972;8.242;2022-12-20T10:31:44;47.90;;;22.35;;
47856;SDS011;33618;49.972;8.242;2022-12-20T10:34:19;48.50;;;22.48;;
47856;SDS011;33618;49.972;8.242;2022-12-20T10:36:46;51.10;;;24.52;;
47856;SDS011;33618;49.972;8.242;2022-12-20T10:39:23;49.58;;;24.02;;
47856;SDS011;33618;49.972;8.242;2022-12-20T10:45:03;45.30;;;21.52;;
47856;SDS011;33618;49.972;8.242;2022-12-20T10:47:42;39.63;;;22.23;;
47856;SDS011;33618;49.972;8.242;2022-12-20T10:50:20;47.97;;;23.25;;
47856;SDS011;33618;49.972;8.242;2022-12-20T10:55:38;40.17;;;21.50;;
47856;SDS011;33618;49.972;8.242;2022-12-20T11:01:02;48.47;;;21.88;;
47856;SDS011;33618;49.972;8.242;2022-12-20T11:03:47;44.17;;;21.48;;
47856;SDS011;33618;49.972;8.242;2022-12-20T11:06:16;49.80;;;22.40;;
47856;SDS011;33618;49.972;8.242;2022-12-20T11:08:44;40.22;;;21.92;;
47856;SDS011;33618;49.972;8.242;2022-12-20T11:11:24;44.15;;;22.17;;
47856;SDS011;33618;49.972;8.242;2022-12-20T11:13:51;44.95;;;22.15;;
47856;SDS011;33618;49.972;8.242;2022-12-20T11:19:29;36.75;;;20.08;;
47856;SDS011;33618;49.972;8.242;2022-12-20T11:24:31;39.05;;;21.33;;
47856;SDS011;33618;49.972;8.242;2022-12-20T11:30:13;41.15;;;22.38;;
47856;SDS011;33618;49.972;8.242;2022-12-20T11:57:53;40.92;;;21.27;;
47856;SDS011;33618;49.972;8.242;2022-12-20T12:00:51;40.67;;;20.25;;
47856;SDS011;33618;49.972;8.242;2022-12-20T12:03:39;34.22;;;19.70;;
47856;SDS011;33618;49.972;8.242;2022-12-20T12:07:05;36.08;;;20.42;;
47856;SDS011;33618;49.972;8.242;2022-12-20T12:09:34;33.80;;;20.05;;
47856;SDS011;33618;49.972;8.242;2022-12-20T12:22:52;35.03;;;19.85;;
47856;SDS011;33618;49.972;8.242;2022-12-20T12:25:26;34.63;;;20.77;;
47856;SDS011;33618;49.972;8.242;2022-12-20T12:27:53;35.60;;;20.42;;
47856;SDS011;33618;49.972;8.242;2022-12-20T12:30:20;34.30;;;19.38;;
47856;SDS011;33618;49.972;8.242;2022-12-20T12:32:56;35.65;;;19.85;;
47856;SDS011;33618;49.972;8.242;2022-12-20T12:38:23;38.90;;;19.48;;
47856;SDS011;33618;49.972;8.242;2022-12-20T12:43:48;34.10;;;19.08;;
47856;SDS011;33618;49.972;8.242;2022-12-20T12:46:24;32.42;;;18.95;;
47856;SDS011;33618;49.972;8.242;2022-12-20T12:49:03;37.60;;;20.02;;
47856;SDS011;33618;49.972;8.242;2022-12-20T12:51:54;34.00;;;19.33;;
47856;SDS011;33618;49.972;8.242;2022-12-20T12:54:38;33.25;;;19.08;;
47856;SDS011;33618;49.972;8.242;2022-12-20T12:57:16;36.78;;;19.75;;
47856;SDS011;33618;49.972;8.242;2022-12-20T12:59:48;36.25;;;19.52;;
47856;SDS011;33618;49.972;8.242;2022-12-20T13:04:54;34.83;;;18.98;;
47856;SDS011;33618;49.972;8.242;2022-12-20T13:17:51;39.03;;;20.25;;
47856;SDS011;33618;49.972;8.242;2022-12-20T13:25:35;40.67;;;21.02;;
47856;SDS011;33618;49.972;8.242;2022-12-20T13:38:53;36.35;;;22.10;;
47856;SDS011;33618;49.972;8.242;2022-12-20T13:41:40;41.83;;;22.45;;
47856;SDS011;33618;49.972;8.242;2022-12-20T13:49:42;38.97;;;23.45;;
47856;SDS011;33618;49.972;8.242;2022-12-20T13:52:26;42.22;;;24.17;;
47856;SDS011;33618;49.972;8.242;2022-12-20T13:54:59;41.58;;;22.83;;
47856;SDS011;33618;49.972;8.242;2022-12-20T13:57:41;41.30;;;22.63;;
47856;SDS011;33618;49.972;8.242;2022-12-20T14:00:17;42.13;;;22.10;;
47856;SDS011;33618;49.972;8.242;2022-12-20T14:02:53;38.72;;;22.02;;
47856;SDS011;33618;49.972;8.242;2022-12-20T14:05:22;39.35;;;22.15;;
47856;SDS011;33618;49.972;8.242;2022-12-20T14:07:57;37.55;;;21.95;;
47856;SDS011;33618;49.972;8.242;2022-12-20T14:10:27;39.13;;;22.65;;
47856;SDS011;33618;49.972;8.242;2022-12-20T14:12:55;36.00;;;21.45;;
47856;SDS011;33618;49.972;8.242;2022-12-20T14:15:32;39.85;;;21.52;;
47856;SDS011;33618;49.972;8.242;2022-12-20T14:18:17;39.42;;;21.25;;
47856;SDS011;33618;49.972;8.242;2022-12-20T14:20:54;42.60;;;22.00;;
47856;SDS011;33618;49.972;8.242;2022-12-20T14:23:45;39.33;;;21.35;;
47856;SDS011;33618;49.972;8.242;2022-12-20T14:26:15;35.42;;;20.75;;
47856;SDS011;33618;49.972;8.242;2022-12-20T14:28:48;39.92;;;21.73;;
47856;SDS011;33618;49.972;8.242;2022-12-20T14:34:03;39.85;;;22.30;;
47856;SDS011;33618;49.972;8.242;2022-12-20T14:36:41;38.90;;;21.63;;
47856;SDS011;33618;49.972;8.242;2022-12-20T14:39:26;34.92;;;20.85;;
47856;SDS011;33618;49.972;8.242;2022-12-20T14:44:38;40.70;;;22.33;;
47856;SDS011;33618;49.972;8.242;2022-12-20T14:49:49;40.53;;;22.05;;
47856;SDS011;33618;49.972;8.242;2022-12-20T14:52:28;42.72;;;23.15;;
47856;SDS011;33618;49.972;8.242;2022-12-20T14:55:03;48.10;;;23.90;;
47856;SDS011;33618;49.972;8.242;2022-12-20T14:57:46;43.72;;;23.58;;
47856;SDS011;33618;49.972;8.242;2022-12-20T15:08:12;40.00;;;22.85;;
47856;SDS011;33618;49.972;8.242;2022-12-20T15:11:02;44.75;;;23.13;;
47856;SDS011;33618;49.972;8.242;2022-12-20T15:16:12;44.17;;;24.35;;
47856;SDS011;33618;49.972;8.242;2022-12-20T15:18:49;43.75;;;24.00;;
47856;SDS011;33618;49.972;8.242;2022-12-20T15:24:17;45.83;;;24.38;;
47856;SDS011;33618;49.972;8.242;2022-12-20T15:26:47;43.78;;;23.45;;
47856;SDS011;33618;49.972;8.242;2022-12-20T15:29:18;45.65;;;25.00;;
47856;SDS011;33618;49.972;8.242;2022-12-20T15:31:52;43.00;;;24.30;;
47856;SDS011;33618;49.972;8.242;2022-12-20T15:36:59;42.95;;;24.02;;
47856;SDS011;33618;49.972;8.242;2022-12-20T15:39:28;47.97;;;25.52;;
47856;SDS011;33618;49.972;8.242;2022-12-20T15:41:55;44.15;;;24.83;;
47856;SDS011;33618;49.972;8.242;2022-12-20T15:44:26;52.22;;;26.10;;
47856;SDS011;33618;49.972;8.242;2022-12-20T15:46:58;46.83;;;24.65;;
47856;SDS011;33618;49.972;8.242;2022-12-20T15:49:29;45.65;;;25.73;;
47856;SDS011;33618;49.972;8.242;2022-12-20T15:51:57;45.85;;;25.52;;
47856;SDS011;33618;49.972;8.242;2022-12-20T15:54:26;45.60;;;25.48;;
47856;SDS011;33618;49.972;8.242;2022-12-20T15:56:59;47.90;;;25.67;;
47856;SDS011;33618;49.972;8.242;2022-12-20T15:59:28;46.70;;;24.30;;
47856;SDS011;33618;49.972;8.242;2022-12-20T16:02:23;48.70;;;25.98;;
47856;SDS011;33618;49.972;8.242;2022-12-20T16:04:53;51.65;;;28.30;;
47856;SDS011;33618;49.972;8.242;2022-12-20T16:07:20;55.20;;;28.73;;
47856;SDS011;33618;49.972;8.242;2022-12-20T16:09:47;55.97;;;27.88;;
47856;SDS011;33618;49.972;8.242;2022-12-20T16:12:15;60.03;;;28.23;;
47856;SDS011;33618;49.972;8.242;2022-12-20T16:14:46;47.08;;;26.50;;
47856;SDS011;33618;49.972;8.242;2022-12-20T16:17:13;54.65;;;26.92;;
47856;SDS011;33618;49.972;8.242;2022-12-20T16:19:41;53.70;;;26.63;;
47856;SDS011;33618;49.972;8.242;2022-12-20T16:22:15;49.30;;;27.13;;
47856;SDS011;33618;49.972;8.242;2022-12-20T16:24:44;50.47;;;26.48;;
47856;SDS011;33618;49.972;8.242;2022-12-20T16:27:11;50.97;;;25.75;;
47856;SDS011;33618;49.972;8.242;2022-12-20T16:29:38;46.72;;;25.45;;
47856;SDS011;33618;49.972;8.242;2022-12-20T16:32:13;58.22;;;26.02;;
47856;SDS011;33618;49.972;8.242;2022-12-20T16:34:42;45.28;;;25.90;;
47856;SDS011;33618;49.972;8.242;2022-12-20T16:37:09;48.22;;;26.17;;
47856;SDS011;33618;49.972;8.242;2022-12-20T16:39:39;54.30;;;26.30;;
47856;SDS011;33618;49.972;8.242;2022-12-20T16:42:13;52.13;;;27.67;;
47856;SDS011;33618;49.972;8.242;2022-12-20T16:44:51;51.88;;;27.00;;
47856;SDS011;33618;49.972;8.242;2022-12-20T16:47:19;48.88;;;25.92;;
47856;SDS011;33618;49.972;8.242;2022-12-20T16:49:46;52.95;;;26.55;;
47856;SDS011;33618;49.972;8.242;2022-12-20T16:52:19;53.70;;;26.50;;
47856;SDS011;33618;49.972;8.242;2022-12-20T16:54:47;52.90;;;25.65;;
47856;SDS011;33618;49.972;8.242;2022-12-20T16:57:14;55.33;;;27.83;;
47856;SDS011;33618;49.972;8.242;2022-12-20T16:59:41;50.75;;;26.25;;
47856;SDS011;33618;49.972;8.242;2022-12-20T17:02:31;49.50;;;25.98;;
47856;SDS011;33618;49.972;8.242;2022-12-20T17:04:58;49.60;;;27.73;;
47856;SDS011;33618;49.972;8.242;2022-12-20T17:07:26;61.75;;;32.65;;
47856;SDS011;33618;49.972;8.242;2022-12-20T17:09:53;65.10;;;31.17;;
47856;SDS011;33618;49.972;8.242;2022-12-20T17:12:38;60.65;;;29.98;;
47856;SDS011;33618;49.972;8.242;2022-12-20T17:15:05;52.28;;;28.00;;
47856;SDS011;33618;49.972;8.242;2022-12-20T17:17:38;53.00;;;29.15;;
47856;SDS011;33618;49.972;8.242;2022-12-20T17:20:05;56.67;;;29.85;;
47856;SDS011;33618;49.972;8.242;2022-12-20T17:22:32;53.60;;;29.27;;
47856;SDS011;33618;49.972;8.242;2022-12-20T17:24:59;54.20;;;28.80;;
47856;SDS011;33618;49.972;8.242;2022-12-20T17:27:26;49.35;;;26.90;;
47856;SDS011;33618;49.972;8.242;2022-12-20T17:29:53;52.90;;;28.45;;
47856;SDS011;33618;49.972;8.242;2022-12-20T17:32:22;49.83;;;28.00;;
47856;SDS011;33618;49.972;8.242;2022-12-20T17:34:51;53.33;;;28.70;;
47856;SDS011;33618;49.972;8.242;2022-12-20T17:37:18;53.47;;;27.95;;
47856;SDS011;33618;49.972;8.242;2022-12-20T17:39:47;59.17;;;31.02;;
47856;SDS011;33618;49.972;8.242;2022-12-20T17:42:14;54.20;;;28.58;;
47856;SDS011;33618;49.972;8.242;2022-12-20T17:44:41;55.05;;;29.98;;
47856;SDS011;33618;49.972;8.242;2022-12-20T17:47:08;56.78;;;28.95;;
47856;SDS011;33618;49.972;8.242;2022-12-20T17:49:37;50.08;;;28.38;;
47856;SDS011;33618;49.972;8.242;2022-12-20T17:52:04;53.97;;;28.85;;
47856;SDS011;33618;49.972;8.242;2022-12-20T17:54:31;53.63;;;28.63;;
47856;SDS011;33618;49.972;8.242;2022-12-20T17:57:09;60.97;;;35.35;;
47856;SDS011;33618;49.972;8.242;2022-12-20T17:59:41;62.20;;;31.92;;
47856;SDS011;33618;49.972;8.242;2022-12-20T18:02:21;57.85;;;29.67;;
47856;SDS011;33618;49.972;8.242;2022-12-20T18:04:49;54.83;;;28.90;;
47856;SDS011;33618;49.972;8.242;2022-12-20T18:07:17;52.20;;;29.10;;
47856;SDS011;33618;49.972;8.242;2022-12-20T18:09:47;59.70;;;29.13;;
47856;SDS011;33618;49.972;8.242;2022-12-20T18:12:15;58.42;;;29.73;;
47856;SDS011;33618;49.972;8.242;2022-12-20T18:14:43;52.83;;;29.38;;
47856;SDS011;33618;49.972;8.242;2022-12-20T18:17:10;52.30;;;28.60;;
47856;SDS011;33618;49.972;8.242;2022-12-20T18:19:37;56.55;;;29.60;;
47856;SDS011;33618;49.972;8.242;2022-12-20T18:22:05;56.15;;;29.02;;
47856;SDS011;33618;49.972;8.242;2022-12-20T18:24:32;53.38;;;29.63;;
47856;SDS011;33618;49.972;8.242;2022-12-20T18:27:00;55.85;;;29.35;;
47856;SDS011;33618;49.972;8.242;2022-12-20T18:29:27;52.65;;;29.08;;
47856;SDS011;33618;49.972;8.242;2022-12-20T18:31:55;60.42;;;30.45;;
47856;SDS011;33618;49.972;8.242;2022-12-20T18:34:22;54.65;;;29.75;;
47856;SDS011;33618;49.972;8.242;2022-12-20T18:36:49;53.15;;;28.77;;
47856;SDS011;33618;49.972;8.242;2022-12-20T18:39:17;58.13;;;29.95;;
47856;SDS011;33618;49.972;8.242;2022-12-20T18:41:44;62.65;;;30.73;;
47856;SDS011;33618;49.972;8.242;2022-12-20T18:44:13;58.35;;;30.27;;
47856;SDS011;33618;49.972;8.242;2022-12-20T18:46:41;53.75;;;29.80;;
47856;SDS011;33618;49.972;8.242;2022-12-20T18:49:08;52.10;;;28.92;;
47856;SDS011;33618;49.972;8.242;2022-12-20T18:51:36;57.20;;;30.52;;
47856;SDS011;33618;49.972;8.242;2022-12-20T18:54:04;62.75;;;30.88;;
47856;SDS011;33618;49.972;8.242;2022-12-20T18:56:33;57.75;;;30.00;;
47856;SDS011;33618;49.972;8.242;2022-12-20T18:59:02;62.88;;;33.83;;
47856;SDS011;33618;49.972;8.242;2022-12-20T19:01:37;63.75;;;33.08;;
47856;SDS011;33618;49.972;8.242;2022-12-20T19:04:06;63.30;;;33.47;;
47856;SDS011;33618;49.972;8.242;2022-12-20T19:06:35;63.50;;;32.75;;
47856;SDS011;33618;49.972;8.242;2022-12-20T19:09:04;64.57;;;33.03;;
47856;SDS011;33618;49.972;8.242;2022-12-20T19:11:32;56.83;;;32.90;;
47856;SDS011;33618;49.972;8.242;2022-12-20T19:13:59;58.75;;;31.98;;
47856;SDS011;33618;49.972;8.242;2022-12-20T19:16:27;58.13;;;32.03;;
47856;SDS011;33618;49.972;8.242;2022-12-20T19:18:58;62.15;;;33.08;;
47856;SDS011;33618;49.972;8.242;2022-12-20T19:25:14;61.05;;;31.92;;
47856;SDS011;33618;49.972;8.242;2022-12-20T19:27:42;50.33;;;28.42;;
47856;SDS011;33618;49.972;8.242;2022-12-20T19:30:09;56.50;;;27.83;;
47856;SDS011;33618;49.972;8.242;2022-12-20T19:32:36;58.08;;;29.02;;
47856;SDS011;33618;49.972;8.242;2022-12-20T19:35:04;51.45;;;29.67;;
47856;SDS011;33618;49.972;8.242;2022-12-20T19:37:52;61.55;;;30.17;;
47856;SDS011;33618;49.972;8.242;2022-12-20T19:40:19;50.47;;;28.25;;
47856;SDS011;33618;49.972;8.242;2022-12-20T19:42:46;56.33;;;28.90;;
47856;SDS011;33618;49.972;8.242;2022-12-20T19:45:13;50.25;;;28.20;;
47856;SDS011;33618;49.972;8.242;2022-12-20T19:47:40;56.55;;;28.52;;
47856;SDS011;33618;49.972;8.242;2022-12-20T19:50:08;53.65;;;29.80;;
47856;SDS011;33618;49.972;8.242;2022-12-20T19:52:35;52.80;;;26.63;;
47856;SDS011;33618;49.972;8.242;2022-12-20T19:55:03;51.83;;;27.38;;
47856;SDS011;33618;49.972;8.242;2022-12-20T19:57:30;51.47;;;26.92;;
47856;SDS011;33618;49.972;8.242;2022-12-20T19:59:57;48.92;;;25.63;;
47856;SDS011;33618;49.972;8.242;2022-12-20T20:02:24;48.83;;;23.77;;
47856;SDS011;33618;49.972;8.242;2022-12-20T20:04:52;47.47;;;24.85;;
47856;SDS011;33618;49.972;8.242;2022-12-20T20:07:19;47.20;;;25.05;;
47856;SDS011;33618;49.972;8.242;2022-12-20T20:09:46;48.10;;;26.13;;
47856;SDS011;33618;49.972;8.242;2022-12-20T20:12:13;50.83;;;27.33;;
47856;SDS011;33618;49.972;8.242;2022-12-20T20:14:40;48.67;;;26.20;;
47856;SDS011;33618;49.972;8.242;2022-12-20T20:17:07;47.03;;;25.85;;
47856;SDS011;33618;49.972;8.242;2022-12-20T20:19:35;42.97;;;22.20;;
47856;SDS011;33618;49.972;8.242;2022-12-20T20:22:04;45.65;;;24.95;;
47856;SDS011;33618;49.972;8.242;2022-12-20T20:24:32;43.97;;;23.58;;
47856;SDS011;33618;49.972;8.242;2022-12-20T20:26:59;48.60;;;24.27;;
47856;SDS011;33618;49.972;8.242;2022-12-20T20:29:26;39.22;;;22.88;;
47856;SDS011;33618;49.972;8.242;2022-12-20T20:31:53;42.83;;;23.13;;
47856;SDS011;33618;49.972;8.242;2022-12-20T20:34:20;43.60;;;23.45;;
47856;SDS011;33618;49.972;8.242;2022-12-20T20:36:48;43.80;;;23.13;;
47856;SDS011;33618;49.972;8.242;2022-12-20T20:39:14;45.08;;;22.60;;
47856;SDS011;33618;49.972;8.242;2022-12-20T20:41:42;48.85;;;22.75;;
47856;SDS011;33618;49.972;8.242;2022-12-20T20:44:09;42.40;;;22.38;;
47856;SDS011;33618;49.972;8.242;2022-12-20T20:46:37;47.08;;;23.85;;
47856;SDS011;33618;49.972;8.242;2022-12-20T20:49:04;47.50;;;22.60;;
47856;SDS011;33618;49.972;8.242;2022-12-20T20:51:31;56.75;;;23.85;;
47856;SDS011;33618;49.972;8.242;2022-12-20T20:53:58;52.50;;;23.20;;
47856;SDS011;33618;49.972;8.242;2022-12-20T20:56:25;49.88;;;22.83;;
47856;SDS011;33618;49.972;8.242;2022-12-20T20:58:52;52.88;;;23.63;;
47856;SDS011;33618;49.972;8.242;2022-12-20T21:01:26;50.17;;;23.67;;
47856;SDS011;33618;49.972;8.242;2022-12-20T21:03:53;55.22;;;25.02;;
47856;SDS011;33618;49.972;8.242;2022-12-20T21:06:22;53.22;;;25.05;;
47856;SDS011;33618;49.972;8.242;2022-12-20T21:09:07;61.67;;;25.25;;
47856;SDS011;33618;49.972;8.242;2022-12-20T21:11:35;58.50;;;26.05;;
47856;SDS011;33618;49.972;8.242;2022-12-20T21:14:02;64.97;;;26.85;;
47856;SDS011;33618;49.972;8.242;2022-12-20T21:16:29;59.40;;;27.60;;
47856;SDS011;33618;49.972;8.242;2022-12-20T21:18:57;50.78;;;25.83;;
47856;SDS011;33618;49.972;8.242;2022-12-20T21:21:24;54.10;;;28.20;;
47856;SDS011;33618;49.972;8.242;2022-12-20T21:23:52;60.30;;;27.75;;
47856;SDS011;33618;49.972;8.242;2022-12-20T21:26:20;57.75;;;28.25;;
47856;SDS011;33618;49.972;8.242;2022-12-20T21:28:48;61.60;;;27.40;;
47856;SDS011;33618;49.972;8.242;2022-12-20T21:31:16;59.13;;;27.17;;
47856;SDS011;33618;49.972;8.242;2022-12-20T21:33:45;52.67;;;26.20;;
47856;SDS011;33618;49.972;8.242;2022-12-20T21:36:13;52.22;;;25.83;;
47856;SDS011;33618;49.972;8.242;2022-12-20T21:38:49;57.25;;;27.10;;
47856;SDS011;33618;49.972;8.242;2022-12-20T21:41:18;54.47;;;26.55;;
47856;SDS011;33618;49.972;8.242;2022-12-20T21:43:49;59.20;;;27.75;;
47856;SDS011;33618;49.972;8.242;2022-12-20T21:46:17;53.70;;;26.65;;
47856;SDS011;33618;49.972;8.242;2022-12-20T21:48:45;54.17;;;27.30;;
47856;SDS011;33618;49.972;8.242;2022-12-20T21:51:19;50.15;;;26.00;;
47856;SDS011;33618;49.972;8.242;2022-12-20T21:53:50;56.40;;;26.38;;
47856;SDS011;33618;49.972;8.242;2022-12-20T21:56:18;52.45;;;25.70;;
47856;SDS011;33618;49.972;8.242;2022-12-20T21:58:46;57.30;;;27.73;;
47856;SDS011;33618;49.972;8.242;2022-12-20T22:01:15;52.05;;;27.13;;
47856;SDS011;33618;49.972;8.242;2022-12-20T22:03:44;54.25;;;26.80;;
47856;SDS011;33618;49.972;8.242;2022-12-20T22:06:11;56.50;;;26.80;;
47856;SDS011;33618;49.972;8.242;2022-12-20T22:08:38;50.00;;;25.40;;
47856;SDS011;33618;49.972;8.242;2022-12-20T22:11:12;51.08;;;27.60;;
47856;SDS011;33618;49.972;8.242;2022-12-20T22:13:40;60.55;;;26.58;;